Time;durP1;ratioP1;P1;durP2;ratioP2;P2;SDS_P1;SDS_P2;PMS_P1;PMS_P2;Temp;Humidity;BMP_temperature;BMP_pressure;BME280_temperature;BME280_humidity;BME280_pressure;Samples;Min_cycle;Max_cycle;Signal;HPM_P1;HPM_P2
2021/12/27 00:01:53;;;;;;;20.63;9.13;;;-6.80;84.20;;;;;;5022737;28;20030;-93
2021/12/27 00:04:20;;;;;;;18.35;8.27;;;-6.80;83.90;;;;;;5002564;28;20064;-91
2021/12/27 00:06:50;;;;;;;12.63;6.53;;;-6.80;84.50;;;;;;5001649;28;20057;-90
2021/12/27 00:09:15;;;;;;;14.13;6.70;;;-6.80;83.80;;;;;;5000104;28;20543;-93
2021/12/27 00:11:41;;;;;;;12.35;5.82;;;-6.90;83.50;;;;;;5000679;28;20053;-91
2021/12/27 00:14:07;;;;;;;11.55;5.70;;;-6.90;83.80;;;;;;5000801;28;20030;-90
2021/12/27 00:16:32;;;;;;;14.90;6.78;;;-6.90;84.80;;;;;;5001177;28;20590;-92
2021/12/27 00:18:58;;;;;;;11.07;5.00;;;-6.90;86.10;;;;;;4985623;28;20065;-91
2021/12/27 00:21:24;;;;;;;12.85;5.40;;;-6.90;85.40;;;;;;5001110;28;20022;-93
2021/12/27 00:23:49;;;;;;;10.52;4.95;;;-6.80;85.30;;;;;;5018611;28;20026;-93
2021/12/27 00:26:15;;;;;;;12.75;5.30;;;-7.00;84.00;;;;;;5000889;28;20030;-91
2021/12/27 00:28:41;;;;;;;10.20;4.50;;;-6.80;84.60;;;;;;5000983;28;20061;-91
2021/12/27 00:31:06;;;;;;;10.95;5.07;;;-6.80;84.20;;;;;;5001088;28;20026;-93
2021/12/27 00:33:33;;;;;;;13.43;5.93;;;-6.80;84.50;;;;;;5019125;28;20389;-92
2021/12/27 00:35:59;;;;;;;11.15;5.45;;;-6.80;85.70;;;;;;5001254;28;20133;-93
2021/12/27 00:38:25;;;;;;;11.05;4.30;;;-6.80;85.50;;;;;;5001797;28;20033;-92
2021/12/27 00:40:51;;;;;;;10.43;4.88;;;-6.80;85.70;;;;;;5002182;28;20053;-93
2021/12/27 00:43:18;;;;;;;11.40;4.45;;;-6.80;84.80;;;;;;5002948;28;20053;-91
2021/12/27 00:45:44;;;;;;;10.55;4.85;;;-6.80;85.40;;;;;;5001410;28;20060;-92
2021/12/27 00:48:10;;;;;;;9.80;4.53;;;-6.80;85.00;;;;;;5007849;28;20025;-91
2021/12/27 00:50:37;;;;;;;10.95;4.45;;;-6.90;84.60;;;;;;5000741;28;20496;-91
2021/12/27 00:53:02;;;;;;;9.90;4.43;;;-6.80;84.80;;;;;;5004134;28;20010;-93
2021/12/27 00:55:30;;;;;;;11.35;4.75;;;-6.90;85.00;;;;;;5022512;28;20078;-92
2021/12/27 00:57:56;;;;;;;9.50;4.72;;;-6.90;85.40;;;;;;5038234;28;20049;-93
2021/12/27 01:00:25;;;;;;;8.32;4.50;;;-6.90;86.20;;;;;;5037554;28;20049;-93
2021/12/27 01:02:53;;;;;;;8.07;4.18;;;-6.80;85.10;;;;;;5017605;28;20036;-93
2021/12/27 01:05:19;;;;;;;11.02;4.95;;;-6.80;84.70;;;;;;5000925;28;20033;-92
2021/12/27 01:07:45;;;;;;;12.95;5.28;;;-6.90;84.80;;;;;;5000995;28;20032;-92
2021/12/27 01:17:46;;;;;;;11.10;5.20;;;-6.90;85.40;;;;;;5019022;28;20460;-92
2021/12/27 01:20:16;;;;;;;10.88;4.35;;;-6.90;85.60;;;;;;4999658;28;20036;-92
2021/12/27 01:22:42;;;;;;;12.82;5.18;;;-7.00;85.50;;;;;;5000515;28;20030;-92
2021/12/27 01:25:12;;;;;;;11.85;5.03;;;-7.00;86.10;;;;;;5001213;28;20113;-93
2021/12/27 01:27:40;;;;;;;11.20;5.60;;;-7.00;86.10;;;;;;5001471;28;20029;-91
2021/12/27 01:30:08;;;;;;;12.45;5.85;;;-7.00;87.70;;;;;;5000845;28;20029;-93
2021/12/27 01:32:42;;;;;;;11.57;5.78;;;;;;;;;;5000651;28;20041;-92
2021/12/27 01:35:08;;;;;;;11.50;5.20;;;-7.10;85.90;;;;;;4986467;28;20030;-91
2021/12/27 01:37:35;;;;;;;12.10;5.28;;;-7.10;86.30;;;;;;4999620;28;20383;-91
2021/12/27 01:40:01;;;;;;;15.27;6.65;;;-7.10;86.10;;;;;;5000067;28;20088;-91
2021/12/27 01:42:27;;;;;;;13.27;6.15;;;-7.20;88.00;;;;;;5017507;28;20034;-92
2021/12/27 01:44:53;;;;;;;13.15;5.55;;;-7.10;88.20;;;;;;5000344;28;20034;-90
2021/12/27 01:47:19;;;;;;;11.65;5.57;;;-7.00;87.50;;;;;;4999841;28;20034;-91
2021/12/27 01:49:45;;;;;;;10.80;5.13;;;-6.90;86.60;;;;;;5000922;28;20030;-92
2021/12/27 01:52:12;;;;;;;12.55;5.78;;;-7.00;87.10;;;;;;5018674;28;20054;-92
2021/12/27 01:54:39;;;;;;;13.63;5.32;;;-7.00;87.40;;;;;;5023526;28;20013;-94
2021/12/27 01:57:05;;;;;;;19.80;8.82;;;-7.00;86.40;;;;;;5021430;28;20018;-93
2021/12/27 01:59:31;;;;;;;14.35;7.18;;;-6.90;86.30;;;;;;5021194;28;20016;-94
2021/12/27 02:01:56;;;;;;;13.35;7.00;;;-6.90;87.70;;;;;;5019859;28;20022;-92
2021/12/27 02:04:22;;;;;;;16.77;7.13;;;-7.00;87.70;;;;;;5017533;28;20029;-94
2021/12/27 02:06:49;;;;;;;13.18;6.50;;;-7.00;87.40;;;;;;5026435;28;20037;-94
2021/12/27 02:09:17;;;;;;;11.32;5.90;;;-7.00;87.10;;;;;;5008507;28;20121;-94
2021/12/27 02:11:43;;;;;;;12.52;5.32;;;-7.10;86.80;;;;;;5002049;28;20057;-93
2021/12/27 02:14:09;;;;;;;11.15;5.50;;;-7.10;86.50;;;;;;5001739;28;20022;-91
2021/12/27 02:16:36;;;;;;;10.60;5.53;;;-5.10;87.60;;;;;;5001109;28;20030;-94
2021/12/27 02:19:02;;;;;;;14.23;6.00;;;-7.20;87.80;;;;;;5018118;28;20014;-94
2021/12/27 02:21:28;;;;;;;11.13;5.32;;;-7.20;88.10;;;;;;4984847;28;20129;-92
2021/12/27 02:23:54;;;;;;;13.75;6.07;;;-7.30;87.70;;;;;;5000366;28;20061;-92
2021/12/27 02:26:21;;;;;;;12.75;5.57;;;-7.30;87.30;;;;;;4999640;28;20061;-93
2021/12/27 02:28:47;;;;;;;14.52;6.22;;;-7.30;87.20;;;;;;4984075;28;20038;-90
2021/12/27 02:31:14;;;;;;;14.80;6.72;;;-7.40;87.60;;;;;;4999731;28;20045;-91
2021/12/27 02:33:42;;;;;;;12.40;6.07;;;-7.40;88.20;;;;;;5002672;28;20025;-91
2021/12/27 02:36:09;;;;;;;12.20;6.18;;;-7.50;88.20;;;;;;5003923;28;20026;-92
2021/12/27 02:38:39;;;;;;;12.95;5.05;;;-7.50;88.20;;;;;;4992079;28;20034;-92
2021/12/27 02:41:06;;;;;;;12.95;5.82;;;-7.60;88.30;;;;;;5015435;28;20017;-91
2021/12/27 02:43:33;;;;;;;13.65;5.93;;;-7.60;88.90;;;;;;5019497;28;20045;-90
2021/12/27 02:46:08;;;;;;;15.30;5.93;;;-7.60;89.20;;;;;;5031359;28;20033;-92
2021/12/27 02:48:42;;;;;;;13.48;5.63;;;-7.70;89.00;;;;;;5020477;28;20030;-90
2021/12/27 02:51:08;;;;;;;10.65;4.88;;;-6.60;89.70;;;;;;5003189;28;20488;-89
2021/12/27 02:53:34;;;;;;;13.07;5.38;;;-7.80;88.90;;;;;;5002347;28;20029;-92
2021/12/27 02:56:01;;;;;;;11.52;5.30;;;-7.70;89.90;;;;;;5005777;28;20036;-92
2021/12/27 02:58:27;;;;;;;13.05;5.97;;;-7.80;90.00;;;;;;5014753;28;20040;-89
2021/12/27 03:01:09;;;;;;;14.93;5.80;;;-7.80;90.40;;;;;;5024152;28;20097;-90
2021/12/27 03:03:35;;;;;;;12.73;5.60;;;-7.80;91.20;;;;;;5023074;28;20030;-92
2021/12/27 03:06:01;;;;;;;11.00;5.80;;;-7.80;90.40;;;;;;5019623;28;20030;-91
2021/12/27 03:08:27;;;;;;;14.70;6.47;;;-7.80;91.00;;;;;;5018832;28;20494;-92
2021/12/27 03:10:55;;;;;;;13.98;6.43;;;-7.80;91.90;;;;;;5004360;28;20049;-91
2021/12/27 03:13:23;;;;;;;17.83;6.22;;;-7.70;91.60;;;;;;5003966;28;20033;-93
2021/12/27 03:16:01;;;;;;;14.75;6.40;;;-7.60;90.90;;;;;;5005424;28;20041;-93
2021/12/27 03:18:28;;;;;;;13.75;5.55;;;-7.60;90.60;;;;;;5004083;28;20033;-95
2021/12/27 03:20:55;;;;;;;18.88;6.82;;;-7.60;91.30;;;;;;5010364;28;20046;-92
2021/12/27 03:23:22;;;;;;;16.52;6.22;;;-7.60;91.30;;;;;;5013875;28;20026;-95
2021/12/27 03:25:49;;;;;;;13.95;5.95;;;-7.50;90.80;;;;;;5010307;28;20020;-94
2021/12/27 03:28:15;;;;;;;12.88;6.10;;;-7.50;90.30;;;;;;5003164;28;20026;-95
2021/12/27 03:30:42;;;;;;;11.77;5.80;;;-7.50;90.90;;;;;;5003169;28;20052;-95
2021/12/27 03:33:09;;;;;;;14.38;6.10;;;-7.50;90.80;;;;;;5002398;28;20029;-92
2021/12/27 03:35:39;;;;;;;10.68;5.28;;;-7.50;91.00;;;;;;5002134;28;20030;-93
2021/12/27 03:38:10;;;;;;;13.15;5.20;;;-7.50;90.70;;;;;;5003917;28;20026;-93
2021/12/27 03:40:38;;;;;;;13.63;5.75;;;-7.50;90.50;;;;;;5002237;28;20499;-93
2021/12/27 03:43:05;;;;;;;10.23;4.68;;;-7.50;90.60;;;;;;5021003;28;20121;-96
2021/12/27 03:45:34;;;;;;;13.00;5.85;;;-7.40;90.80;;;;;;5004190;28;20535;-92
2021/12/27 03:48:01;;;;;;;12.68;5.28;;;-7.50;90.80;;;;;;5004107;28;20010;-94
2021/12/27 03:50:27;;;;;;;11.95;5.28;;;-7.50;90.80;;;;;;5003882;28;20503;-92
2021/12/27 03:52:55;;;;;;;14.02;4.93;;;-7.60;91.00;;;;;;5005563;28;20104;-93
2021/12/27 03:55:22;;;;;;;11.18;5.22;;;-7.60;90.70;;;;;;5023520;28;20030;-93
2021/12/27 03:57:53;;;;;;;11.52;4.93;;;-7.60;91.00;;;;;;5006453;28;20037;-94
2021/12/27 04:02:48;;;;;;;11.68;5.30;;;-7.70;91.50;;;;;;5039808;28;20021;-91
2021/12/27 04:05:14;;;;;;;14.70;6.47;;;-7.60;92.50;;;;;;5023465;28;20025;-93
2021/12/27 04:07:43;;;;;;;13.35;6.72;;;-7.60;92.30;;;;;;5020380;28;20090;-91
2021/12/27 04:10:11;;;;;;;16.52;6.78;;;-7.50;93.20;;;;;;5037209;28;20068;-93
2021/12/27 04:12:38;;;;;;;17.23;6.25;;;-7.50;93.20;;;;;;4993453;28;20057;-92
2021/12/27 04:15:08;;;;;;;14.10;6.03;;;-7.40;92.70;;;;;;5013236;28;20013;-90
2021/12/27 04:17:36;;;;;;;14.93;6.25;;;-7.30;92.90;;;;;;5019871;28;20085;-93
2021/12/27 04:20:03;;;;;;;16.13;6.80;;;-7.20;92.70;;;;;;5005933;28;20388;-93
2021/12/27 04:22:33;;;;;;;19.88;8.50;;;-7.20;92.70;;;;;;5020989;28;20037;-93
2021/12/27 04:24:59;;;;;;;23.50;9.70;;;-7.10;92.80;;;;;;5002359;28;20033;-93
2021/12/27 04:27:25;;;;;;;21.02;9.48;;;-7.10;92.80;;;;;;5002148;28;20029;-93
2021/12/27 04:29:51;;;;;;;25.98;9.35;;;-7.10;92.50;;;;;;5002624;28;20026;-93
2021/12/27 04:32:18;;;;;;;32.85;12.23;;;-7.00;92.40;;;;;;5002607;28;20038;-93
2021/12/27 04:34:43;;;;;;;29.35;13.07;;;-7.00;92.90;;;;;;5001377;28;20109;-94
2021/12/27 04:37:09;;;;;;;36.20;15.95;;;-7.00;93.00;;;;;;5002847;28;20045;-93
2021/12/27 04:39:36;;;;;;;33.70;14.68;;;-7.00;92.80;;;;;;5019468;28;20026;-94
2021/12/27 04:42:04;;;;;;;31.92;13.95;;;-7.00;93.10;;;;;;5001870;28;20060;-92
2021/12/27 04:44:30;;;;;;;51.53;20.42;;;-7.00;93.20;;;;;;4985362;28;20033;-93
2021/12/27 04:46:57;;;;;;;50.13;20.42;;;-6.90;93.80;;;;;;5004052;28;20169;-93
2021/12/27 04:49:23;;;;;;;52.00;21.45;;;-6.90;94.30;;;;;;5002069;28;20041;-93
2021/12/27 04:51:49;;;;;;;47.95;20.65;;;-6.90;93.80;;;;;;5002446;28;20058;-93
2021/12/27 04:54:15;;;;;;;39.28;18.25;;;-6.80;93.70;;;;;;5003037;28;20060;-91
2021/12/27 04:56:40;;;;;;;49.63;22.00;;;-6.80;93.50;;;;;;5004909;28;20036;-91
2021/12/27 04:59:07;;;;;;;48.72;22.23;;;-6.80;93.70;;;;;;5005325;28;20025;-92
2021/12/27 05:01:34;;;;;;;59.72;23.77;;;-6.80;94.10;;;;;;5006859;28;20038;-92
2021/12/27 05:03:59;;;;;;;67.70;31.10;;;-6.70;93.90;;;;;;5018438;28;20017;-92
2021/12/27 05:06:27;;;;;;;61.90;28.85;;;-6.60;94.30;;;;;;5021888;28;20033;-91
2021/12/27 05:08:54;;;;;;;63.92;28.77;;;-6.60;94.10;;;;;;5021740;28;20014;-91
2021/12/27 05:11:21;;;;;;;56.83;27.27;;;-6.50;93.80;;;;;;5021245;28;20085;-90
2021/12/27 05:13:47;;;;;;;54.83;24.98;;;-6.50;93.90;;;;;;5021288;28;20014;-93
2021/12/27 05:16:12;;;;;;;49.05;24.40;;;-6.40;93.80;;;;;;5017906;28;20038;-94
2021/12/27 05:18:39;;;;;;;48.03;22.48;;;-6.40;94.00;;;;;;5017926;28;20105;-91
2021/12/27 05:21:06;;;;;;;42.28;19.42;;;;;;;;;;5016273;28;20052;-90
2021/12/27 05:23:34;;;;;;;39.05;18.02;;;-6.30;93.60;;;;;;5024227;28;20042;-93
2021/12/27 05:26:00;;;;;;;39.60;16.90;;;-6.20;93.60;;;;;;5019486;28;20037;-91
2021/12/27 05:28:26;;;;;;;36.35;16.08;;;-6.20;93.70;;;;;;5003597;28;20030;-93
2021/12/27 05:30:52;;;;;;;35.88;15.77;;;-6.10;94.00;;;;;;5002930;28;20076;-92
2021/12/27 05:33:21;;;;;;;31.80;13.98;;;-6.10;93.90;;;;;;5020329;28;20032;-92
2021/12/27 05:35:48;;;;;;;32.47;16.27;;;-6.00;93.90;;;;;;4986023;28;20030;-89
2021/12/27 05:38:14;;;;;;;34.15;14.70;;;-6.00;93.80;;;;;;5001397;28;20029;-89
2021/12/27 05:40:40;;;;;;;35.90;15.48;;;-5.90;94.40;;;;;;4985354;28;20075;-88
2021/12/27 05:43:09;;;;;;;38.22;16.77;;;-5.90;94.20;;;;;;5000890;28;20090;-90
2021/12/27 05:45:40;;;;;;;36.03;16.33;;;-5.80;94.40;;;;;;5001199;28;20037;-90
2021/12/27 05:48:09;;;;;;;35.05;15.55;;;-5.80;94.60;;;;;;5000664;28;20044;-91
2021/12/27 05:50:35;;;;;;;31.15;14.00;;;-5.70;94.30;;;;;;4987319;28;20054;-89
2021/12/27 05:53:01;;;;;;;40.70;19.23;;;-5.60;94.50;;;;;;4999591;28;20398;-90
2021/12/27 05:55:30;;;;;;;42.03;18.70;;;-5.60;94.90;;;;;;4981949;28;20023;-92
2021/12/27 05:57:56;;;;;;;31.88;14.27;;;-5.60;94.70;;;;;;4980882;28;20026;-89
2021/12/27 06:00:22;;;;;;;27.58;11.77;;;-5.50;94.40;;;;;;4982522;28;20038;-91
2021/12/27 06:02:48;;;;;;;23.80;11.32;;;-5.40;94.70;;;;;;4981748;28;20085;-92
2021/12/27 06:05:17;;;;;;;21.60;11.02;;;-5.40;94.60;;;;;;4998765;28;20094;-92
2021/12/27 06:07:43;;;;;;;20.15;9.63;;;-4.80;94.50;;;;;;4997649;28;20034;-89
2021/12/27 06:10:09;;;;;;;23.15;10.43;;;-5.40;94.60;;;;;;5018755;28;20082;-91
2021/12/27 06:12:35;;;;;;;18.33;9.25;;;-5.30;94.40;;;;;;5017390;28;20026;-91
2021/12/27 06:15:02;;;;;;;19.08;9.55;;;-5.30;94.10;;;;;;4999516;28;20169;-91
2021/12/27 06:17:32;;;;;;;19.70;9.18;;;-5.30;94.40;;;;;;4994997;28;20494;-91
2021/12/27 06:19:59;;;;;;;22.15;10.52;;;-5.20;94.50;;;;;;5009465;28;20033;-90
2021/12/27 06:22:25;;;;;;;23.90;9.93;;;-5.20;94.70;;;;;;4983251;28;20380;-89
2021/12/27 06:24:51;;;;;;;18.17;9.95;;;-5.20;94.90;;;;;;5000878;28;20034;-90
2021/12/27 06:27:17;;;;;;;20.50;9.43;;;-5.10;94.60;;;;;;4998527;28;20092;-91
2021/12/27 06:29:42;;;;;;;26.80;11.63;;;-5.00;94.50;;;;;;4983055;28;20026;-91
2021/12/27 06:32:13;;;;;;;24.80;11.48;;;-5.00;94.70;;;;;;5002168;28;20030;-90
2021/12/27 06:34:41;;;;;;;23.17;12.02;;;-5.00;94.60;;;;;;5000043;28;20034;-91
2021/12/27 06:37:07;;;;;;;27.27;13.10;;;-5.00;94.70;;;;;;5001093;28;20126;-93
2021/12/27 06:39:36;;;;;;;23.17;11.93;;;-5.00;95.10;;;;;;4999502;28;20499;-91
2021/12/27 06:42:05;;;;;;;24.20;11.18;;;-5.00;95.30;;;;;;4999991;28;20157;-90
2021/12/27 06:44:31;;;;;;;20.52;11.05;;;-5.00;95.50;;;;;;4999010;28;20030;-90
2021/12/27 06:46:59;;;;;;;19.60;9.63;;;-5.00;96.00;;;;;;4983254;28;20479;-91
2021/12/27 06:49:27;;;;;;;17.00;9.13;;;-5.00;95.90;;;;;;5001140;28;20030;-92
2021/12/27 06:51:53;;;;;;;18.17;9.40;;;-4.90;95.90;;;;;;4984383;28;20074;-89
2021/12/27 06:54:19;;;;;;;16.10;9.18;;;-4.90;96.10;;;;;;5003261;28;20050;-91
2021/12/27 06:56:45;;;;;;;19.58;9.25;;;-4.80;95.70;;;;;;5005117;28;20110;-91
2021/12/27 06:59:11;;;;;;;17.90;8.82;;;-4.70;95.30;;;;;;4983773;28;20472;-90
2021/12/27 07:01:37;;;;;;;17.38;8.90;;;-4.70;95.10;;;;;;5001925;28;20026;-92
2021/12/27 07:04:04;;;;;;;21.40;9.38;;;-4.70;95.30;;;;;;5004855;28;20034;-91
2021/12/27 07:06:30;;;;;;;19.02;9.25;;;-4.60;95.50;;;;;;5016241;28;20161;-89
2021/12/27 07:08:57;;;;;;;21.98;10.98;;;-4.60;95.50;;;;;;5019648;28;20026;-89
2021/12/27 07:11:23;;;;;;;21.05;11.13;;;-4.60;95.80;;;;;;5019747;28;20010;-91
2021/12/27 07:13:50;;;;;;;23.98;11.05;;;-4.60;95.70;;;;;;5004048;28;20015;-92
2021/12/27 07:16:15;;;;;;;20.60;10.27;;;-4.60;96.00;;;;;;5019470;28;20014;-94
2021/12/27 07:18:41;;;;;;;19.58;10.43;;;-4.60;95.50;;;;;;5002206;28;20077;-92
2021/12/27 07:21:10;;;;;;;19.08;10.00;;;-4.50;96.00;;;;;;5004625;28;20049;-94
2021/12/27 07:23:36;;;;;;;21.52;10.82;;;-4.50;95.70;;;;;;5008522;28;20491;-89
2021/12/27 07:26:02;;;;;;;18.65;9.32;;;-4.50;95.90;;;;;;4989599;28;20038;-90
2021/12/27 07:28:27;;;;;;;19.38;9.77;;;-4.50;95.40;;;;;;5001615;28;20026;-90
2021/12/27 07:30:53;;;;;;;20.52;10.15;;;-4.50;95.30;;;;;;5001166;28;20117;-90
2021/12/27 07:33:23;;;;;;;24.00;10.90;;;-4.40;95.60;;;;;;5034553;28;20463;-91
2021/12/27 07:35:49;;;;;;;24.17;11.13;;;-4.40;95.70;;;;;;5015140;28;20102;-90
2021/12/27 07:38:14;;;;;;;26.50;12.60;;;-4.40;96.10;;;;;;5014700;28;20125;-91
2021/12/27 07:40:40;;;;;;;26.13;12.18;;;-4.50;95.80;;;;;;5018204;28;20026;-92
2021/12/27 07:43:06;;;;;;;22.67;11.20;;;-4.50;95.60;;;;;;5015011;28;20113;-92
2021/12/27 07:48:17;;;;;;;27.83;12.13;;;-4.40;95.70;;;;;;5225618;22;20089;-92
2021/12/27 07:50:47;;;;;;;27.15;13.05;;;-4.40;96.40;;;;;;5045246;28;20036;-93
2021/12/27 07:53:29;;;;;;;24.45;12.43;;;-4.40;97.00;;;;;;5046935;28;20048;-91
2021/12/27 07:55:56;;;;;;;27.10;11.73;;;-4.40;96.70;;;;;;5045785;28;20075;-91
2021/12/27 07:58:22;;;;;;;23.25;11.75;;;-4.50;96.40;;;;;;5066998;28;20029;-91
2021/12/27 08:00:50;;;;;;;27.40;12.77;;;-4.40;96.40;;;;;;5063516;28;20013;-92
2021/12/27 08:03:19;;;;;;;25.48;12.45;;;-4.50;96.80;;;;;;5051158;28;20022;-92
2021/12/27 08:05:46;;;;;;;22.80;11.93;;;-4.50;97.00;;;;;;5057068;28;20056;-89
2021/12/27 08:08:12;;;;;;;24.10;12.73;;;-4.50;97.10;;;;;;5040153;28;20033;-90
2021/12/27 08:10:38;;;;;;;24.13;11.32;;;-4.50;97.70;;;;;;5041986;28;20029;-90
2021/12/27 08:13:05;;;;;;;21.83;11.05;;;-4.50;97.90;;;;;;5039222;28;20105;-90
2021/12/27 08:15:31;;;;;;;22.52;11.57;;;-4.60;97.40;;;;;;5041125;28;20081;-88
2021/12/27 08:17:56;;;;;;;24.73;12.48;;;-4.50;97.50;;;;;;5041904;28;20036;-90
2021/12/27 08:20:37;;;;;;;25.13;12.60;;;-4.50;97.70;;;;;;5031125;28;20044;-87
2021/12/27 08:23:03;;;;;;;25.48;11.65;;;-4.50;97.70;;;;;;5041097;28;20483;-91
2021/12/27 08:25:29;;;;;;;19.95;10.25;;;-4.40;97.60;;;;;;5025774;28;20068;-93
2021/12/27 08:27:55;;;;;;;24.90;11.52;;;-4.40;97.50;;;;;;5028890;28;20032;-87
2021/12/27 08:30:21;;;;;;;25.30;12.40;;;-4.40;97.50;;;;;;5021759;28;20083;-84
2021/12/27 08:32:52;;;;;;;19.35;10.45;;;-4.30;97.30;;;;;;5020846;28;20034;-86
2021/12/27 08:35:18;;;;;;;19.50;9.65;;;-4.30;97.30;;;;;;5036849;28;20551;-83
2021/12/27 08:37:47;;;;;;;21.83;10.93;;;-4.30;97.30;;;;;;5036995;28;20033;-83
2021/12/27 08:40:13;;;;;;;19.20;9.55;;;-4.20;97.80;;;;;;5021393;28;20041;-84
2021/12/27 08:42:40;;;;;;;18.67;9.73;;;-4.10;97.60;;;;;;5038710;28;20061;-84
2021/12/27 08:45:06;;;;;;;21.92;10.38;;;-4.10;97.40;;;;;;5019410;28;20116;-84
2021/12/27 08:47:32;;;;;;;19.45;10.82;;;-4.10;97.10;;;;;;5017715;28;20395;-84
2021/12/27 08:50:02;;;;;;;18.13;10.07;;;-4.10;97.00;;;;;;5036450;28;20025;-85
2021/12/27 08:52:29;;;;;;;20.42;9.77;;;-4.00;96.80;;;;;;5018344;28;20075;-84
2021/12/27 08:54:55;;;;;;;17.05;9.25;;;-4.00;96.70;;;;;;5033903;28;20021;-84
2021/12/27 08:57:21;;;;;;;21.00;9.98;;;-4.00;95.80;;;;;;5017624;28;20025;-84
2021/12/27 08:59:47;;;;;;;17.92;9.50;;;-3.90;96.00;;;;;;5016861;28;20094;-82
2021/12/27 09:02:13;;;;;;;24.23;12.15;;;-3.90;96.10;;;;;;5034703;28;20060;-82
2021/12/27 09:04:39;;;;;;;24.27;12.65;;;-3.80;95.60;;;;;;5017048;28;20069;-84
2021/12/27 09:07:04;;;;;;;27.63;13.60;;;-3.90;95.90;;;;;;5034453;28;20034;-85
2021/12/27 09:09:31;;;;;;;25.08;12.52;;;-3.80;96.10;;;;;;5036308;28;20383;-86
2021/12/27 09:11:57;;;;;;;26.25;13.50;;;-3.80;96.10;;;;;;5023908;28;20471;-84
2021/12/27 09:14:22;;;;;;;27.73;12.52;;;-3.80;95.80;;;;;;5023184;28;20021;-86
2021/12/27 09:16:48;;;;;;;36.67;17.20;;;-3.70;95.70;;;;;;5025513;28;20448;-84
2021/12/27 09:19:15;;;;;;;31.70;15.88;;;-3.70;95.90;;;;;;5022939;28;20022;-82
2021/12/27 09:21:40;;;;;;;63.45;24.70;;;-3.70;95.80;;;;;;5018846;28;20379;-87
2021/12/27 09:24:07;;;;;;;74.38;28.35;;;-3.70;95.80;;;;;;5034902;28;20053;-87
2021/12/27 09:26:35;;;;;;;74.60;28.80;;;-3.70;95.60;;;;;;5034869;28;20140;-85
2021/12/27 09:29:01;;;;;;;75.95;27.77;;;-3.70;95.10;;;;;;5017154;28;20529;-85
2021/12/27 09:31:27;;;;;;;61.35;23.63;;;-3.70;95.20;;;;;;5034955;28;20029;-85
2021/12/27 09:33:52;;;;;;;55.00;23.42;;;-3.70;95.50;;;;;;5017127;28;20036;-86
2021/12/27 09:36:18;;;;;;;52.45;21.13;;;-3.70;95.30;;;;;;5017125;28;20029;-84
2021/12/27 09:38:45;;;;;;;50.20;19.92;;;-3.70;95.30;;;;;;5019019;28;20021;-85
2021/12/27 09:41:14;;;;;;;52.47;22.35;;;-3.70;95.80;;;;;;5038339;28;20029;-86
2021/12/27 09:43:40;;;;;;;70.45;26.17;;;-3.70;96.00;;;;;;5017001;28;20028;-85
2021/12/27 09:46:06;;;;;;;73.32;28.08;;;-3.70;96.10;;;;;;5017117;28;20043;-86
2021/12/27 09:48:34;;;;;;;98.00;33.58;;;-3.60;95.90;;;;;;5034379;28;20470;-84
2021/12/27 09:51:00;;;;;;;108.15;37.30;;;-3.60;95.50;;;;;;5017047;28;20030;-82
2021/12/27 09:53:26;;;;;;;105.57;37.33;;;-3.50;95.20;;;;;;5034305;28;20455;-86
2021/12/27 09:59:23;;;;;;;152.88;44.10;;;-3.50;95.30;;;;;;4977661;28;20046;-84
2021/12/27 10:05:10;;;;;;;;;;;-3.50;95.10;;;;;;4974785;28;20139;-87
2021/12/27 10:11:30;;;;;;;155.35;47.50;;;-3.60;95.40;;;;;;4913651;28;20062;-92
2021/12/27 10:17:19;;;;;;;;;;;-3.60;96.20;;;;;;4980811;28;20043;-87
2021/12/27 10:19:45;;;;;;;144.43;44.90;;;-3.60;98.60;;;;;;4977559;28;19980;-85
2021/12/27 10:25:29;;;;;;;122.03;41.67;;;-3.50;95.80;;;;;;4900063;29;20048;-85
2021/12/27 10:27:58;;;;;;;113.50;39.40;;;-3.50;95.30;;;;;;4957526;28;20050;-87
2021/12/27 10:30:27;;;;;;;121.32;40.30;;;-3.50;95.00;;;;;;5008462;28;20038;-86
2021/12/27 10:33:16;;;;;;;107.60;38.20;;;-3.50;95.50;;;;;;5017056;28;20075;-85
2021/12/27 10:35:45;;;;;;;109.78;36.15;;;-3.50;95.20;;;;;;5017149;28;20152;-88
2021/12/27 10:38:22;;;;;;;96.03;36.65;;;-3.50;95.00;;;;;;5017123;28;20029;-87
2021/12/27 10:40:52;;;;;;;98.60;37.25;;;-3.50;95.40;;;;;;5017452;28;20030;-86
2021/12/27 10:43:34;;;;;;;111.43;40.67;;;-3.50;95.40;;;;;;5017304;28;20022;-86
2021/12/27 10:46:00;;;;;;;;;;;-3.50;95.90;;;;;;5016842;28;20045;-87
2021/12/27 10:48:34;;;;;;;105.43;37.25;;;-3.60;97.00;;;;;;5016661;28;20003;-85
2021/12/27 10:51:01;;;;;;;124.13;41.78;;;-3.50;95.00;;;;;;5017131;28;20113;-86
2021/12/27 10:53:41;;;;;;;131.35;45.92;;;-3.50;95.00;;;;;;5036874;28;20030;-86
2021/12/27 10:56:07;;;;;;;127.03;44.17;;;-3.60;95.30;;;;;;5021054;28;20026;-84
2021/12/27 10:58:38;;;;;;;127.10;45.42;;;-3.60;95.40;;;;;;5019512;28;20021;-83
2021/12/27 11:01:18;;;;;;;107.93;38.58;;;-3.60;95.40;;;;;;5004549;28;20447;-85
2021/12/27 11:03:45;;;;;;;141.07;44.42;;;-3.50;95.40;;;;;;5020093;28;20037;-85
2021/12/27 11:06:13;;;;;;;140.10;47.40;;;-3.50;95.40;;;;;;5040964;28;20029;-88
2021/12/27 11:08:42;;;;;;;132.45;43.50;;;-3.50;95.50;;;;;;5004854;28;20034;-85
2021/12/27 11:11:08;;;;;;;116.45;39.45;;;-3.50;95.10;;;;;;5039876;28;20033;-84
2021/12/27 11:13:35;;;;;;;105.65;37.15;;;-3.50;95.10;;;;;;5020645;28;20070;-87
2021/12/27 11:16:01;;;;;;;117.90;40.78;;;-3.40;94.70;;;;;;5024599;28;20379;-84
2021/12/27 11:18:30;;;;;;;107.47;37.67;;;-3.40;94.70;;;;;;5039403;28;20029;-85
2021/12/27 11:21:02;;;;;;;112.80;37.35;;;-3.50;94.70;;;;;;5023340;28;20026;-83
2021/12/27 11:23:29;;;;;;;107.07;36.28;;;-3.50;95.10;;;;;;5042681;28;20038;-81
2021/12/27 11:26:07;;;;;;;118.70;38.33;;;-3.50;95.30;;;;;;5039711;28;20091;-82
2021/12/27 11:29:07;;;;;;;107.65;37.40;;;-3.50;95.60;;;;;;5019404;28;20138;-83
2021/12/27 11:31:34;;;;;;;103.03;35.47;;;-3.50;95.60;;;;;;5019236;28;20027;-82
2021/12/27 11:34:05;;;;;;;101.47;33.78;;;-3.50;95.90;;;;;;5019370;28;20309;-83
2021/12/27 11:36:36;;;;;;;100.53;33.78;;;-3.50;96.00;;;;;;5019293;28;20472;-87
2021/12/27 11:39:17;;;;;;;;;;;-3.50;95.90;;;;;;5003208;28;20064;-86
2021/12/27 11:41:43;;;;;;;94.90;32.80;;;-3.40;97.90;;;;;;5036383;28;19905;-89
2021/12/27 11:44:17;;;;;;;114.03;37.30;;;-3.40;95.60;;;;;;5018066;28;20063;-87
2021/12/27 11:46:49;;;;;;;153.35;53.40;;;-3.40;95.30;;;;;;5019131;28;20036;-83
2021/12/27 11:49:16;;;;;;;146.70;49.17;;;-3.40;95.30;;;;;;5018566;28;20049;-84
2021/12/27 11:51:46;;;;;;;162.75;49.10;;;-3.40;95.20;;;;;;5036087;28;20064;-83
2021/12/27 11:54:33;;;;;;;166.90;50.20;;;-3.40;95.60;;;;;;5036104;28;20035;-82
2021/12/27 11:56:59;;;;;;;187.88;52.03;;;-3.40;96.60;;;;;;5035458;28;20557;-82
2021/12/27 11:59:25;;;;;;;185.35;52.88;;;-3.40;95.70;;;;;;5036123;28;20026;-85
2021/12/27 12:01:56;;;;;;;207.55;55.40;;;-3.50;95.60;;;;;;5018587;28;20028;-82
2021/12/27 12:04:44;;;;;;;199.38;57.08;;;-3.50;95.50;;;;;;5035852;28;20039;-83
2021/12/27 12:07:10;;;;;;;195.52;56.55;;;-3.60;96.10;;;;;;5011212;28;20029;-91
2021/12/27 12:09:49;;;;;;;190.93;52.03;;;-3.60;96.00;;;;;;5020431;28;20056;-91
2021/12/27 12:12:15;;;;;;;199.23;52.28;;;-3.60;97.20;;;;;;5022714;28;20026;-89
2021/12/27 12:14:42;;;;;;;166.13;46.88;;;-3.60;96.90;;;;;;5036322;28;20436;-85
2021/12/27 12:17:13;;;;;;;174.27;46.00;;;-3.60;96.70;;;;;;5037093;28;20033;-84
2021/12/27 12:19:48;;;;;;;158.60;45.80;;;-3.50;96.70;;;;;;5035769;28;20017;-81
2021/12/27 12:22:42;;;;;;;145.27;42.45;;;-3.60;96.60;;;;;;5020403;28;20054;-84
2021/12/27 12:25:21;;;;;;;148.65;42.22;;;-3.60;96.90;;;;;;4983719;28;20053;-82
2021/12/27 12:27:57;;;;;;;144.65;43.25;;;-3.60;97.00;;;;;;5000579;28;20058;-83
2021/12/27 12:30:27;;;;;;;159.13;46.17;;;-3.60;96.80;;;;;;4978548;28;20469;-84
2021/12/27 12:33:05;;;;;;;150.52;44.15;;;-3.60;96.90;;;;;;4979502;28;20034;-81
2021/12/27 12:35:35;;;;;;;149.80;43.10;;;-3.60;96.60;;;;;;4978512;28;20129;-83
2021/12/27 12:38:28;;;;;;;115.83;36.07;;;-3.50;96.50;;;;;;4996285;28;20026;-84
2021/12/27 12:41:15;;;;;;;102.93;30.67;;;-3.50;97.30;;;;;;4994928;28;20030;-89
2021/12/27 12:44:07;;;;;;;78.57;26.95;;;-3.60;97.70;;;;;;4996191;28;20030;-83
2021/12/27 12:46:42;;;;;;;65.55;23.77;;;-3.60;97.40;;;;;;4978480;28;20540;-88
2021/12/27 12:49:22;;;;;;;57.85;20.15;;;-3.60;97.10;;;;;;4994313;28;20046;-87
2021/12/27 12:52:05;;;;;;;41.17;16.60;;;-3.60;97.30;;;;;;4976925;28;20022;-84
2021/12/27 12:54:39;;;;;;;34.50;13.85;;;-3.60;96.90;;;;;;4994577;28;20037;-83
2021/12/27 12:57:20;;;;;;;27.90;13.15;;;-3.70;96.70;;;;;;4993829;28;20031;-82
2021/12/27 12:59:52;;;;;;;24.38;11.93;;;-3.70;97.00;;;;;;4995642;28;20158;-81
2021/12/27 13:02:26;;;;;;;31.92;12.32;;;-3.70;96.90;;;;;;4993643;28;20039;-83
2021/12/27 13:04:53;;;;;;;26.70;12.98;;;-3.80;96.90;;;;;;4989743;28;20033;-83
2021/12/27 13:07:44;;;;;;;26.80;10.85;;;-3.80;97.00;;;;;;4978200;28;20038;-82